sensor_id;sensor_type;location;lat;lon;timestamp;pressure;altitude;pressure_sealevel;temperature;humidity
19508;BME280;40157;42.566;27.526;2024-01-11T04:59:42;102010.03;;;-3.87;70.25
19508;BME280;40157;42.566;27.526;2024-01-11T05:01:42;102012.41;;;-3.80;69.54
19508;BME280;40157;42.566;27.526;2024-01-11T05:03:44;102012.22;;;-3.73;69.46
19508;BME280;40157;42.566;27.526;2024-01-11T05:05:44;102008.28;;;-3.61;69.03
19508;BME280;40157;42.566;27.526;2024-01-11T05:07:45;102026.56;;;-3.39;68.50
19508;BME280;40157;42.566;27.526;2024-01-11T05:09:45;101987.06;;;-3.41;68.18
19508;BME280;40157;42.566;27.526;2024-01-11T05:11:46;102002.47;;;-3.22;67.73
19508;BME280;40157;42.566;27.526;2024-01-11T05:13:47;102004.72;;;-3.16;66.92
19508;BME280;40157;42.566;27.526;2024-01-11T05:15:47;102004.16;;;-3.03;66.36
19508;BME280;40157;42.566;27.526;2024-01-11T05:17:48;102014.03;;;-2.89;66.26
19508;BME280;40157;42.566;27.526;2024-01-11T05:19:48;102012.31;;;-2.80;65.79
19508;BME280;40157;42.566;27.526;2024-01-11T05:21:49;102017.44;;;-2.80;64.79
19508;BME280;40157;42.566;27.526;2024-01-11T05:23:49;102010.78;;;-2.77;64.68
19508;BME280;40157;42.566;27.526;2024-01-11T05:25:51;102016.03;;;-2.95;64.68
19508;BME280;40157;42.566;27.526;2024-01-11T05:27:51;102006.47;;;-2.87;65.01
19508;BME280;40157;42.566;27.526;2024-01-11T05:29:51;101994.53;;;-2.87;65.10
19508;BME280;40157;42.566;27.526;2024-01-11T05:31:52;102001.34;;;-2.87;65.41
19508;BME280;40157;42.566;27.526;2024-01-11T05:33:52;102018.47;;;-2.77;65.58
19508;BME280;40157;42.566;27.526;2024-01-11T05:35:53;102001.13;;;-2.80;65.61
19508;BME280;40157;42.566;27.526;2024-01-11T05:37:53;102001.75;;;-2.83;66.00
19508;BME280;40157;42.566;27.526;2024-01-11T05:39:57;101996.28;;;-2.77;66.69
19508;BME280;40157;42.566;27.526;2024-01-11T05:41:57;101999.88;;;-2.75;66.48
19508;BME280;40157;42.566;27.526;2024-01-11T05:43:57;101996.19;;;-2.68;66.20
19508;BME280;40157;42.566;27.526;2024-01-11T05:45:58;101985.69;;;-2.71;66.18
19508;BME280;40157;42.566;27.526;2024-01-11T05:47:58;101990.16;;;-2.69;65.90
19508;BME280;40157;42.566;27.526;2024-01-11T05:49:59;101986.84;;;-2.68;65.20
19508;BME280;40157;42.566;27.526;2024-01-11T05:52:00;101991.53;;;-2.53;64.99
19508;BME280;40157;42.566;27.526;2024-01-11T05:54:00;101990.53;;;-2.45;64.27
19508;BME280;40157;42.566;27.526;2024-01-11T05:56:01;101993.53;;;-2.40;64.20
19508;BME280;40157;42.566;27.526;2024-01-11T05:58:03;101993.09;;;-2.26;63.88
19508;BME280;40157;42.566;27.526;2024-01-11T06:00:04;101992.38;;;-2.15;63.50
19508;BME280;40157;42.566;27.526;2024-01-11T06:02:05;101987.41;;;-2.03;63.12
19508;BME280;40157;42.566;27.526;2024-01-11T06:04:05;102002.19;;;-1.90;62.79
19508;BME280;40157;42.566;27.526;2024-01-11T06:06:06;101996.31;;;-1.89;62.12
19508;BME280;40157;42.566;27.526;2024-01-11T06:08:07;101997.09;;;-1.80;61.38
19508;BME280;40157;42.566;27.526;2024-01-11T06:10:08;101993.13;;;-1.76;60.97
19508;BME280;40157;42.566;27.526;2024-01-11T06:12:09;101991.47;;;-1.65;60.32
19508;BME280;40157;42.566;27.526;2024-01-11T06:14:09;101988.41;;;-1.61;59.91
19508;BME280;40157;42.566;27.526;2024-01-11T06:16:10;102001.28;;;-1.61;59.49
19508;BME280;40157;42.566;27.526;2024-01-11T06:18:10;101981.31;;;-1.74;59.67
19508;BME280;40157;42.566;27.526;2024-01-11T06:20:11;101999.31;;;-1.64;59.30
19508;BME280;40157;42.566;27.526;2024-01-11T06:22:11;101997.09;;;-1.80;59.55
19508;BME280;40157;42.566;27.526;2024-01-11T06:24:12;102001.22;;;-1.72;59.74
19508;BME280;40157;42.566;27.526;2024-01-11T06:26:12;102000.63;;;-1.49;71.44
19508;BME280;40157;42.566;27.526;2024-01-11T06:28:13;102000.28;;;0.82;88.58
19508;BME280;40157;42.566;27.526;2024-01-11T06:30:14;101994.41;;;1.19;92.30
19508;BME280;40157;42.566;27.526;2024-01-11T06:32:14;101986.50;;;0.94;86.76
19508;BME280;40157;42.566;27.526;2024-01-11T06:34:14;101996.53;;;0.23;73.55
19508;BME280;40157;42.566;27.526;2024-01-11T06:36:15;101988.94;;;0.02;67.39
19508;BME280;40157;42.566;27.526;2024-01-11T06:38:15;101985.09;;;-0.13;60.94
19508;BME280;40157;42.566;27.526;2024-01-11T06:40:16;101974.16;;;-0.43;58.99
19508;BME280;40157;42.566;27.526;2024-01-11T06:42:16;101990.59;;;-0.31;57.88
19508;BME280;40157;42.566;27.526;2024-01-11T06:44:17;101992.47;;;-0.50;57.50
19508;BME280;40157;42.566;27.526;2024-01-11T06:46:21;101969.16;;;-0.52;57.42
19508;BME280;40157;42.566;27.526;2024-01-11T06:48:21;101986.22;;;-0.32;57.43
19508;BME280;40157;42.566;27.526;2024-01-11T06:50:22;101988.91;;;-0.30;57.49
19508;BME280;40157;42.566;27.526;2024-01-11T06:52:22;101989.97;;;-0.28;57.51
19508;BME280;40157;42.566;27.526;2024-01-11T06:54:23;101988.56;;;-0.35;57.38
19508;BME280;40157;42.566;27.526;2024-01-11T06:56:23;101980.03;;;-0.34;57.88
19508;BME280;40157;42.566;27.526;2024-01-11T06:58:24;101964.34;;;-0.37;57.71
19508;BME280;40157;42.566;27.526;2024-01-11T07:00:24;101973.84;;;-0.26;57.98
19508;BME280;40157;42.566;27.526;2024-01-11T07:02:25;101966.94;;;-0.47;58.03
19508;BME280;40157;42.566;27.526;2024-01-11T07:04:25;101977.09;;;-0.39;59.02
19508;BME280;40157;42.566;27.526;2024-01-11T07:06:25;101984.56;;;-0.31;58.91
19508;BME280;40157;42.566;27.526;2024-01-11T07:08:26;101981.69;;;-0.24;58.95
19508;BME280;40157;42.566;27.526;2024-01-11T07:10:26;101989.78;;;-0.20;58.52
19508;BME280;40157;42.566;27.526;2024-01-11T07:12:26;101988.91;;;-0.30;58.19
19508;BME280;40157;42.566;27.526;2024-01-11T07:14:27;101997.28;;;-0.23;58.04
19508;BME280;40157;42.566;27.526;2024-01-11T07:16:29;101995.19;;;-0.16;57.33
19508;BME280;40157;42.566;27.526;2024-01-11T07:18:29;101982.81;;;-0.21;56.94
19508;BME280;40157;42.566;27.526;2024-01-11T07:20:30;101996.22;;;-0.14;56.10
19508;BME280;40157;42.566;27.526;2024-01-11T07:22:30;101993.94;;;-0.22;56.17
19508;BME280;40157;42.566;27.526;2024-01-11T07:24:31;101974.09;;;-0.23;55.91
19508;BME280;40157;42.566;27.526;2024-01-11T07:26:37;101990.81;;;-0.17;55.77
19508;BME280;40157;42.566;27.526;2024-01-11T07:28:38;101985.16;;;-0.24;56.33
19508;BME280;40157;42.566;27.526;2024-01-11T07:30:38;101987.34;;;-0.18;56.80
19508;BME280;40157;42.566;27.526;2024-01-11T07:32:40;101985.69;;;-0.28;57.26
19508;BME280;40157;42.566;27.526;2024-01-11T07:34:40;101982.31;;;-0.27;58.12
19508;BME280;40157;42.566;27.526;2024-01-11T07:36:40;101974.38;;;-0.30;58.27
19508;BME280;40157;42.566;27.526;2024-01-11T07:38:41;101958.53;;;-0.34;58.81
19508;BME280;40157;42.566;27.526;2024-01-11T07:40:41;101970.06;;;-0.19;58.62
19508;BME280;40157;42.566;27.526;2024-01-11T07:42:42;101965.81;;;-0.19;58.29
19508;BME280;40157;42.566;27.526;2024-01-11T07:44:43;101965.16;;;-0.16;58.32
19508;BME280;40157;42.566;27.526;2024-01-11T07:46:44;101948.81;;;-0.27;58.26
19508;BME280;40157;42.566;27.526;2024-01-11T07:48:44;101959.44;;;-0.34;57.91
19508;BME280;40157;42.566;27.526;2024-01-11T07:50:45;101950.22;;;-0.52;58.50
19508;BME280;40157;42.566;27.526;2024-01-11T07:52:45;101959.78;;;-0.51;58.59
19508;BME280;40157;42.566;27.526;2024-01-11T07:55:04;101947.34;;;-0.35;57.69
19508;BME280;40157;42.566;27.526;2024-01-11T07:57:08;101936.13;;;-0.35;58.43
19508;BME280;40157;42.566;27.526;2024-01-11T07:59:08;101942.47;;;-0.42;58.16
19508;BME280;40157;42.566;27.526;2024-01-11T08:01:15;101944.94;;;-0.54;58.78
19508;BME280;40157;42.566;27.526;2024-01-11T08:03:16;101938.66;;;-0.58;60.43
19508;BME280;40157;42.566;27.526;2024-01-11T08:05:16;101940.13;;;-0.39;60.53
19508;BME280;40157;42.566;27.526;2024-01-11T08:07:17;101935.72;;;-0.30;60.35
19508;BME280;40157;42.566;27.526;2024-01-11T08:09:17;101941.16;;;-0.37;59.42
19508;BME280;40157;42.566;27.526;2024-01-11T08:11:18;101941.53;;;-0.32;58.71
19508;BME280;40157;42.566;27.526;2024-01-11T08:13:19;101934.69;;;-0.32;59.34
19508;BME280;40157;42.566;27.526;2024-01-11T08:15:21;101934.16;;;-0.28;59.78
19508;BME280;40157;42.566;27.526;2024-01-11T08:17:22;101926.94;;;-0.22;59.97
19508;BME280;40157;42.566;27.526;2024-01-11T08:19:23;101933.91;;;-0.31;58.64
19508;BME280;40157;42.566;27.526;2024-01-11T08:21:23;101923.50;;;-0.32;59.22
19508;BME280;40157;42.566;27.526;2024-01-11T08:23:24;101929.19;;;-0.14;59.69
19508;BME280;40157;42.566;27.526;2024-01-11T08:25:25;101928.41;;;-0.13;60.10
19508;BME280;40157;42.566;27.526;2024-01-11T08:27:25;101931.41;;;-0.19;58.63
19508;BME280;40157;42.566;27.526;2024-01-11T08:29:26;101916.88;;;-0.29;58.99
19508;BME280;40157;42.566;27.526;2024-01-11T08:31:26;101929.25;;;-0.25;58.77
19508;BME280;40157;42.566;27.526;2024-01-11T08:33:26;101919.06;;;-0.23;59.61
19508;BME280;40157;42.566;27.526;2024-01-11T08:35:27;101928.19;;;-0.16;60.22
19508;BME280;40157;42.566;27.526;2024-01-11T08:37:28;101919.84;;;-0.02;59.91
19508;BME280;40157;42.566;27.526;2024-01-11T08:39:28;101920.97;;;-0.21;60.06
19508;BME280;40157;42.566;27.526;2024-01-11T08:41:28;101921.97;;;-0.08;60.66
19508;BME280;40157;42.566;27.526;2024-01-11T08:43:29;101911.09;;;-0.04;60.30
19508;BME280;40157;42.566;27.526;2024-01-11T08:45:29;101910.63;;;0.12;60.29
19508;BME280;40157;42.566;27.526;2024-01-11T08:47:30;101905.59;;;0.13;60.64
19508;BME280;40157;42.566;27.526;2024-01-11T08:49:30;101909.91;;;0.03;60.35
19508;BME280;40157;42.566;27.526;2024-01-11T08:51:31;101891.72;;;0.01;61.11
19508;BME280;40157;42.566;27.526;2024-01-11T08:53:35;101897.41;;;0.19;60.45
19508;BME280;40157;42.566;27.526;2024-01-11T08:55:35;101891.16;;;0.27;60.38
19508;BME280;40157;42.566;27.526;2024-01-11T08:57:36;101895.47;;;0.16;59.96
19508;BME280;40157;42.566;27.526;2024-01-11T08:59:37;101879.41;;;0.31;60.19
19508;BME280;40157;42.566;27.526;2024-01-11T09:01:37;101881.78;;;0.51;58.36
19508;BME280;40157;42.566;27.526;2024-01-11T09:03:38;101882.75;;;0.64;56.89
19508;BME280;40157;42.566;27.526;2024-01-11T09:05:38;101884.44;;;0.75;56.78
19508;BME280;40157;42.566;27.526;2024-01-11T09:07:40;101874.78;;;0.84;55.73
19508;BME280;40157;42.566;27.526;2024-01-11T09:09:40;101878.72;;;0.91;55.25
19508;BME280;40157;42.566;27.526;2024-01-11T09:11:41;101863.47;;;0.94;55.50
19508;BME280;40157;42.566;27.526;2024-01-11T09:13:41;101865.50;;;1.10;55.36
19508;BME280;40157;42.566;27.526;2024-01-11T09:15:42;101860.75;;;1.16;53.70
19508;BME280;40157;42.566;27.526;2024-01-11T09:17:42;101861.66;;;1.28;52.56
19508;BME280;40157;42.566;27.526;2024-01-11T09:19:43;101861.06;;;1.44;51.98
19508;BME280;40157;42.566;27.526;2024-01-11T09:21:43;101853.03;;;1.53;51.94
19508;BME280;40157;42.566;27.526;2024-01-11T09:23:44;101847.88;;;1.65;51.24
19508;BME280;40157;42.566;27.526;2024-01-11T09:25:44;101844.09;;;1.85;51.65
19508;BME280;40157;42.566;27.526;2024-01-11T09:27:45;101831.78;;;1.94;51.56
19508;BME280;40157;42.566;27.526;2024-01-11T09:29:46;101829.25;;;2.08;51.06
19508;BME280;40157;42.566;27.526;2024-01-11T09:31:46;101827.88;;;2.13;50.62
19508;BME280;40157;42.566;27.526;2024-01-11T09:33:47;101816.34;;;2.21;51.56
19508;BME280;40157;42.566;27.526;2024-01-11T09:35:48;101819.59;;;2.44;52.13
19508;BME280;40157;42.566;27.526;2024-01-11T09:37:50;101801.97;;;2.51;48.13
19508;BME280;40157;42.566;27.526;2024-01-11T09:39:50;101809.06;;;2.67;45.56
19508;BME280;40157;42.566;27.526;2024-01-11T09:42:07;101801.72;;;2.73;46.21
19508;BME280;40157;42.566;27.526;2024-01-11T09:44:09;101796.34;;;2.84;46.15
19508;BME280;40157;42.566;27.526;2024-01-11T09:46:10;101787.06;;;2.61;46.52
19508;BME280;40157;42.566;27.526;2024-01-11T09:48:12;101784.38;;;2.72;46.57
19508;BME280;40157;42.566;27.526;2024-01-11T09:50:14;101773.81;;;2.83;46.52
19508;BME280;40157;42.566;27.526;2024-01-11T09:52:19;101774.63;;;2.82;45.94
19508;BME280;40157;42.566;27.526;2024-01-11T09:54:20;101779.41;;;2.89;47.14
19508;BME280;40157;42.566;27.526;2024-01-11T09:56:21;101778.19;;;2.97;45.57
19508;BME280;40157;42.566;27.526;2024-01-11T09:58:22;101764.06;;;2.92;45.21
19508;BME280;40157;42.566;27.526;2024-01-11T10:00:23;101763.75;;;3.01;45.96
19508;BME280;40157;42.566;27.526;2024-01-11T10:02:25;101758.88;;;3.05;46.24
19508;BME280;40157;42.566;27.526;2024-01-11T10:04:29;101759.31;;;3.13;45.75
19508;BME280;40157;42.566;27.526;2024-01-11T10:06:32;101754.97;;;3.12;44.29
19508;BME280;40157;42.566;27.526;2024-01-11T10:08:34;101755.16;;;3.15;44.86
19508;BME280;40157;42.566;27.526;2024-01-11T10:10:35;101750.53;;;3.24;45.70
19508;BME280;40157;42.566;27.526;2024-01-11T10:12:36;101738.31;;;3.22;45.62
19508;BME280;40157;42.566;27.526;2024-01-11T10:14:37;101734.88;;;3.23;45.22
19508;BME280;40157;42.566;27.526;2024-01-11T10:16:37;101733.88;;;3.34;45.23
19508;BME280;40157;42.566;27.526;2024-01-11T10:18:38;101718.69;;;3.40;45.67
19508;BME280;40157;42.566;27.526;2024-01-11T10:20:38;101721.44;;;3.57;45.53
19508;BME280;40157;42.566;27.526;2024-01-11T10:22:42;101725.53;;;3.68;43.63
19508;BME280;40157;42.566;27.526;2024-01-11T10:24:43;101708.22;;;3.67;42.42
19508;BME280;40157;42.566;27.526;2024-01-11T10:26:43;101719.03;;;3.89;42.93
19508;BME280;40157;42.566;27.526;2024-01-11T10:28:45;101717.91;;;4.14;40.00
19508;BME280;40157;42.566;27.526;2024-01-11T10:30:46;101706.81;;;4.17;40.58
19508;BME280;40157;42.566;27.526;2024-01-11T10:32:47;101715.38;;;4.31;41.27
19508;BME280;40157;42.566;27.526;2024-01-11T10:34:48;101719.50;;;4.42;41.08
19508;BME280;40157;42.566;27.526;2024-01-11T10:36:50;101715.00;;;4.54;41.55
19508;BME280;40157;42.566;27.526;2024-01-11T10:38:54;101705.94;;;4.62;43.11
19508;BME280;40157;42.566;27.526;2024-01-11T10:40:59;101695.94;;;4.85;43.35
19508;BME280;40157;42.566;27.526;2024-01-11T10:43:02;101699.38;;;5.00;43.03
19508;BME280;40157;42.566;27.526;2024-01-11T10:45:11;101700.84;;;5.12;42.43
19508;BME280;40157;42.566;27.526;2024-01-11T10:47:15;101677.13;;;5.22;41.00
19508;BME280;40157;42.566;27.526;2024-01-11T10:49:17;101695.59;;;5.43;40.51
19508;BME280;40157;42.566;27.526;2024-01-11T10:51:21;101675.84;;;5.47;39.51
19508;BME280;40157;42.566;27.526;2024-01-11T10:53:47;101683.22;;;5.55;39.92
19508;BME280;40157;42.566;27.526;2024-01-11T10:55:47;101670.88;;;5.51;40.18
19508;BME280;40157;42.566;27.526;2024-01-11T10:57:49;101667.59;;;5.55;39.94
19508;BME280;40157;42.566;27.526;2024-01-11T10:59:52;101661.03;;;5.46;39.89
19508;BME280;40157;42.566;27.526;2024-01-11T11:01:54;101649.16;;;5.34;39.88
19508;BME280;40157;42.566;27.526;2024-01-11T11:03:56;101650.63;;;5.46;40.39
19508;BME280;40157;42.566;27.526;2024-01-11T11:05:58;101652.16;;;5.59;40.53
19508;BME280;40157;42.566;27.526;2024-01-11T11:08:01;101656.50;;;5.58;40.64
19508;BME280;40157;42.566;27.526;2024-01-11T11:10:03;101651.56;;;5.64;41.50
19508;BME280;40157;42.566;27.526;2024-01-11T11:12:05;101658.19;;;5.92;39.50
19508;BME280;40157;42.566;27.526;2024-01-11T11:14:07;101660.78;;;6.08;39.88
19508;BME280;40157;42.566;27.526;2024-01-11T11:16:08;101649.69;;;6.13;39.85
19508;BME280;40157;42.566;27.526;2024-01-11T11:18:09;101657.97;;;6.22;40.13
19508;BME280;40157;42.566;27.526;2024-01-11T11:20:10;101646.34;;;6.15;40.31
19508;BME280;40157;42.566;27.526;2024-01-11T11:22:14;101638.34;;;5.94;41.27
19508;BME280;40157;42.566;27.526;2024-01-11T11:24:16;101637.00;;;5.68;41.90
19508;BME280;40157;42.566;27.526;2024-01-11T11:26:19;101625.88;;;5.70;42.60
19508;BME280;40157;42.566;27.526;2024-01-11T11:28:20;101622.91;;;5.81;42.91
19508;BME280;40157;42.566;27.526;2024-01-11T11:30:21;101604.91;;;5.67;41.63
19508;BME280;40157;42.566;27.526;2024-01-11T11:32:35;101608.47;;;5.69;42.02
19508;BME280;40157;42.566;27.526;2024-01-11T11:34:43;101603.72;;;5.61;42.65
19508;BME280;40157;42.566;27.526;2024-01-11T11:36:46;101598.72;;;5.31;43.41
19508;BME280;40157;42.566;27.526;2024-01-11T11:38:47;101603.03;;;5.30;43.41
19508;BME280;40157;42.566;27.526;2024-01-11T11:40:49;101611.47;;;5.43;43.75
19508;BME280;40157;42.566;27.526;2024-01-11T11:42:51;101590.19;;;5.50;43.86
19508;BME280;40157;42.566;27.526;2024-01-11T11:44:52;101593.91;;;5.55;44.30
19508;BME280;40157;42.566;27.526;2024-01-11T11:46:53;101568.34;;;5.64;44.30
19508;BME280;40157;42.566;27.526;2024-01-11T11:48:53;101562.19;;;5.80;44.25
19508;BME280;40157;42.566;27.526;2024-01-11T11:51:21;101576.44;;;6.23;43.32
19508;BME280;40157;42.566;27.526;2024-01-11T11:53:22;101570.16;;;6.37;42.62
19508;BME280;40157;42.566;27.526;2024-01-11T11:55:25;101569.41;;;6.40;42.30
19508;BME280;40157;42.566;27.526;2024-01-11T11:57:27;101570.84;;;6.53;41.83
19508;BME280;40157;42.566;27.526;2024-01-11T11:59:28;101556.47;;;6.61;41.29
19508;BME280;40157;42.566;27.526;2024-01-11T12:01:29;101569.78;;;6.67;40.64
19508;BME280;40157;42.566;27.526;2024-01-11T12:03:36;101559.22;;;6.64;41.48
19508;BME280;40157;42.566;27.526;2024-01-11T12:05:39;101558.72;;;6.73;42.18
19508;BME280;40157;42.566;27.526;2024-01-11T12:07:40;101560.63;;;6.95;40.05
19508;BME280;40157;42.566;27.526;2024-01-11T12:09:41;101554.28;;;7.09;39.50
19508;BME280;40157;42.566;27.526;2024-01-11T12:11:41;101533.31;;;7.06;39.32
19508;BME280;40157;42.566;27.526;2024-01-11T12:13:42;101552.22;;;7.21;38.93
19508;BME280;40157;42.566;27.526;2024-01-11T12:15:44;101534.97;;;7.25;38.90
19508;BME280;40157;42.566;27.526;2024-01-11T12:17:45;101545.50;;;7.48;38.66
19508;BME280;40157;42.566;27.526;2024-01-11T12:19:46;101517.69;;;7.48;38.81
19508;BME280;40157;42.566;27.526;2024-01-11T12:21:46;101538.16;;;7.39;38.91
19508;BME280;40157;42.566;27.526;2024-01-11T12:23:47;101539.56;;;7.52;38.08
19508;BME280;40157;42.566;27.526;2024-01-11T12:25:48;101518.19;;;7.60;37.92
19508;BME280;40157;42.566;27.526;2024-01-11T12:27:49;101513.91;;;7.63;38.13
19508;BME280;40157;42.566;27.526;2024-01-11T12:29:49;101516.16;;;7.53;38.30
19508;BME280;40157;42.566;27.526;2024-01-11T12:31:50;101511.22;;;7.59;38.12
19508;BME280;40157;42.566;27.526;2024-01-11T12:33:52;101516.78;;;7.69;38.29
19508;BME280;40157;42.566;27.526;2024-01-11T12:35:52;101506.81;;;7.58;38.45
19508;BME280;40157;42.566;27.526;2024-01-11T12:37:53;101518.97;;;7.58;38.49
19508;BME280;40157;42.566;27.526;2024-01-11T12:39:58;101496.94;;;7.51;37.80
19508;BME280;40157;42.566;27.526;2024-01-11T12:41:59;101500.84;;;7.63;37.97
19508;BME280;40157;42.566;27.526;2024-01-11T12:43:59;101500.97;;;7.43;38.13
19508;BME280;40157;42.566;27.526;2024-01-11T12:46:00;101488.41;;;7.55;38.09
19508;BME280;40157;42.566;27.526;2024-01-11T12:48:02;101488.78;;;7.65;38.67
19508;BME280;40157;42.566;27.526;2024-01-11T12:50:03;101483.22;;;7.78;38.66
19508;BME280;40157;42.566;27.526;2024-01-11T12:52:04;101483.56;;;7.65;37.37
19508;BME280;40157;42.566;27.526;2024-01-11T12:54:11;101492.34;;;7.67;36.97
19508;BME280;40157;42.566;27.526;2024-01-11T12:56:14;101465.44;;;7.68;37.29
19508;BME280;40157;42.566;27.526;2024-01-11T12:58:19;101477.81;;;7.73;37.16
19508;BME280;40157;42.566;27.526;2024-01-11T13:00:25;101474.00;;;7.65;37.79
19508;BME280;40157;42.566;27.526;2024-01-11T13:02:25;101483.16;;;7.76;38.03
19508;BME280;40157;42.566;27.526;2024-01-11T13:04:26;101484.31;;;7.83;38.06
19508;BME280;40157;42.566;27.526;2024-01-11T13:06:26;101477.22;;;7.81;37.83
19508;BME280;40157;42.566;27.526;2024-01-11T13:08:26;101481.53;;;7.57;37.40
19508;BME280;40157;42.566;27.526;2024-01-11T13:10:27;101477.34;;;7.61;37.45
19508;BME280;40157;42.566;27.526;2024-01-11T13:12:28;101472.34;;;7.67;37.66
19508;BME280;40157;42.566;27.526;2024-01-11T13:14:28;101458.66;;;7.73;37.82
19508;BME280;40157;42.566;27.526;2024-01-11T13:16:29;101460.69;;;7.80;38.19
19508;BME280;40157;42.566;27.526;2024-01-11T13:18:29;101453.84;;;7.84;38.27
19508;BME280;40157;42.566;27.526;2024-01-11T13:20:30;101453.22;;;7.89;38.36
19508;BME280;40157;42.566;27.526;2024-01-11T13:22:30;101444.53;;;7.90;38.40
19508;BME280;40157;42.566;27.526;2024-01-11T13:24:31;101440.75;;;7.82;38.00
19508;BME280;40157;42.566;27.526;2024-01-11T13:26:31;101451.00;;;7.55;38.59
19508;BME280;40157;42.566;27.526;2024-01-11T13:28:33;101445.13;;;7.60;38.32
19508;BME280;40157;42.566;27.526;2024-01-11T13:30:33;101440.91;;;7.64;38.19
19508;BME280;40157;42.566;27.526;2024-01-11T13:32:34;101432.19;;;7.64;38.32
19508;BME280;40157;42.566;27.526;2024-01-11T13:34:35;101438.84;;;7.78;38.73
19508;BME280;40157;42.566;27.526;2024-01-11T13:36:35;101428.75;;;7.87;38.77
19508;BME280;40157;42.566;27.526;2024-01-11T13:38:36;101427.34;;;7.95;38.77
19508;BME280;40157;42.566;27.526;2024-01-11T13:40:36;101433.91;;;8.08;38.81
19508;BME280;40157;42.566;27.526;2024-01-11T13:42:38;101427.31;;;8.18;38.93
19508;BME280;40157;42.566;27.526;2024-01-11T13:44:38;101425.72;;;8.22;38.59
19508;BME280;40157;42.566;27.526;2024-01-11T13:46:39;101419.38;;;8.15;38.80
19508;BME280;40157;42.566;27.526;2024-01-11T13:48:39;101405.38;;;8.13;39.23
19508;BME280;40157;42.566;27.526;2024-01-11T13:50:40;101415.25;;;8.22;38.77
19508;BME280;40157;42.566;27.526;2024-01-11T13:52:40;101412.81;;;8.26;38.82
19508;BME280;40157;42.566;27.526;2024-01-11T13:54:43;101407.03;;;8.35;39.19
19508;BME280;40157;42.566;27.526;2024-01-11T13:56:44;101391.47;;;8.38;39.10
19508;BME280;40157;42.566;27.526;2024-01-11T13:58:45;101399.78;;;8.50;39.08
19508;BME280;40157;42.566;27.526;2024-01-11T14:00:46;101385.72;;;8.47;38.98
19508;BME280;40157;42.566;27.526;2024-01-11T14:02:47;101397.97;;;8.48;38.92
19508;BME280;40157;42.566;27.526;2024-01-11T14:04:47;101389.16;;;8.46;38.82
19508;BME280;40157;42.566;27.526;2024-01-11T14:06:48;101377.16;;;8.51;39.09
19508;BME280;40157;42.566;27.526;2024-01-11T14:08:51;101386.34;;;8.65;38.91
19508;BME280;40157;42.566;27.526;2024-01-11T14:10:51;101379.63;;;8.72;38.69
19508;BME280;40157;42.566;27.526;2024-01-11T14:12:54;101372.56;;;8.69;38.48
19508;BME280;40157;42.566;27.526;2024-01-11T14:14:55;101381.56;;;8.78;38.56
19508;BME280;40157;42.566;27.526;2024-01-11T14:16:55;101377.16;;;8.77;38.51
19508;BME280;40157;42.566;27.526;2024-01-11T14:18:56;101382.72;;;8.86;38.92
19508;BME280;40157;42.566;27.526;2024-01-11T14:20:56;101367.75;;;8.82;38.66
19508;BME280;40157;42.566;27.526;2024-01-11T14:22:56;101368.84;;;8.88;38.49
19508;BME280;40157;42.566;27.526;2024-01-11T14:24:57;101359.25;;;8.89;39.00
19508;BME280;40157;42.566;27.526;2024-01-11T14:26:58;101375.38;;;9.01;38.89
19508;BME280;40157;42.566;27.526;2024-01-11T14:28:59;101371.84;;;8.99;38.38
19508;BME280;40157;42.566;27.526;2024-01-11T14:30:59;101357.41;;;8.85;39.09
19508;BME280;40157;42.566;27.526;2024-01-11T14:33:00;101360.16;;;8.89;38.97
19508;BME280;40157;42.566;27.526;2024-01-11T14:35:00;101364.41;;;8.86;39.08
19508;BME280;40157;42.566;27.526;2024-01-11T14:37:04;101365.97;;;8.81;39.48
19508;BME280;40157;42.566;27.526;2024-01-11T14:39:04;101367.63;;;8.79;39.42
19508;BME280;40157;42.566;27.526;2024-01-11T14:41:05;101363.16;;;8.75;39.64
19508;BME280;40157;42.566;27.526;2024-01-11T14:43:06;101367.34;;;8.69;39.67
19508;BME280;40157;42.566;27.526;2024-01-11T14:45:07;101351.34;;;8.60;40.18
19508;BME280;40157;42.566;27.526;2024-01-11T14:47:07;101342.03;;;8.43;40.33
19508;BME280;40157;42.566;27.526;2024-01-11T14:49:08;101346.19;;;8.38;40.35
19508;BME280;40157;42.566;27.526;2024-01-11T14:51:08;101328.25;;;8.23;40.58
19508;BME280;40157;42.566;27.526;2024-01-11T14:53:09;101343.91;;;8.23;41.00
19508;BME280;40157;42.566;27.526;2024-01-11T14:55:09;101336.63;;;8.14;41.05
19508;BME280;40157;42.566;27.526;2024-01-11T14:57:10;101317.66;;;7.95;41.41
19508;BME280;40157;42.566;27.526;2024-01-11T14:59:10;101312.03;;;7.83;42.00
19508;BME280;40157;42.566;27.526;2024-01-11T15:01:11;101328.69;;;7.87;42.11
19508;BME280;40157;42.566;27.526;2024-01-11T15:03:11;101319.31;;;7.69;42.60
19508;BME280;40157;42.566;27.526;2024-01-11T15:05:12;101320.22;;;7.70;42.56
19508;BME280;40157;42.566;27.526;2024-01-11T15:07:12;101318.09;;;7.59;42.94
19508;BME280;40157;42.566;27.526;2024-01-11T15:09:13;101317.75;;;7.50;43.27
19508;BME280;40157;42.566;27.526;2024-01-11T15:11:13;101310.28;;;7.37;43.27
19508;BME280;40157;42.566;27.526;2024-01-11T15:13:14;101304.81;;;7.31;43.55
19508;BME280;40157;42.566;27.526;2024-01-11T15:15:15;101311.28;;;7.18;43.91
19508;BME280;40157;42.566;27.526;2024-01-11T15:17:15;101303.97;;;7.09;44.21
19508;BME280;40157;42.566;27.526;2024-01-11T15:19:15;101307.56;;;7.11;44.11
19508;BME280;40157;42.566;27.526;2024-01-11T15:21:16;101307.38;;;7.07;44.45
19508;BME280;40157;42.566;27.526;2024-01-11T15:23:16;101299.94;;;6.95;44.71
19508;BME280;40157;42.566;27.526;2024-01-11T15:25:16;101303.75;;;7.48;71.45
19508;BME280;40157;42.566;27.526;2024-01-11T15:27:20;101290.75;;;8.22;76.37
19508;BME280;40157;42.566;27.526;2024-01-11T15:29:21;101297.69;;;8.72;71.38